createdAt,value
2023-05-18T00:01:13.861Z,37.02
2023-05-18T00:03:41.655Z,37.19
2023-05-18T00:06:09.402Z,37.00
2023-05-18T00:08:36.649Z,37.07
2023-05-18T00:11:03.759Z,37.15
2023-05-18T00:13:31.054Z,37.13
2023-05-18T00:15:57.889Z,37.16
2023-05-18T00:18:26.079Z,37.48
2023-05-18T00:20:58.200Z,37.43
2023-05-18T00:23:32.449Z,37.58
2023-05-18T00:25:59.699Z,37.45
2023-05-18T00:28:26.340Z,37.57
2023-05-18T00:30:53.219Z,37.73
2023-05-18T00:33:21.300Z,37.75
2023-05-18T00:35:47.916Z,37.76
2023-05-18T00:38:14.924Z,37.80
2023-05-18T00:40:42.769Z,37.66
2023-05-18T00:43:11.335Z,37.76
2023-05-18T00:45:38.009Z,37.90
2023-05-18T00:48:05.257Z,37.93
2023-05-18T00:50:33.287Z,38.17
2023-05-18T00:52:59.930Z,38.23
2023-05-18T00:55:27.831Z,38.61
2023-05-18T00:57:55.895Z,38.50
2023-05-18T01:00:23.264Z,38.38
2023-05-18T01:02:50.589Z,38.65
2023-05-18T01:05:19.614Z,38.84
2023-05-18T01:07:47.190Z,38.87
2023-05-18T01:10:15.965Z,39.04
2023-05-18T01:12:49.394Z,39.31
2023-05-18T01:15:21.697Z,39.65
2023-05-18T01:17:54.396Z,39.77
2023-05-18T01:20:38.424Z,40.17
2023-05-18T01:23:23.719Z,40.30
2023-05-18T01:25:53.456Z,40.41
2023-05-18T01:28:32.630Z,40.31
2023-05-18T01:30:59.571Z,40.71
2023-05-18T01:33:26.472Z,40.72
2023-05-18T01:35:53.072Z,40.68
2023-05-18T01:38:22.310Z,40.79
2023-05-18T01:41:17.125Z,40.72
2023-05-18T01:44:25.960Z,40.79
2023-05-18T01:47:19.576Z,41.14
2023-05-18T01:50:13.675Z,40.96
2023-05-18T01:52:57.595Z,41.15
2023-05-18T01:55:24.178Z,40.95
2023-05-18T01:57:50.989Z,41.01
2023-05-18T02:00:18.300Z,41.00
2023-05-18T02:02:46.955Z,40.89
2023-05-18T02:05:14.281Z,40.85
2023-05-18T02:07:43.523Z,41.00
2023-05-18T02:10:11.141Z,41.01
2023-05-18T02:12:38.664Z,40.92
2023-05-18T02:15:06.358Z,40.88
2023-05-18T02:17:33.714Z,40.89
2023-05-18T02:20:00.281Z,41.15
2023-05-18T02:22:26.904Z,40.94
2023-05-18T02:24:53.536Z,41.40
2023-05-18T02:27:20.159Z,41.14
2023-05-18T02:29:48.270Z,41.10
2023-05-18T02:32:14.899Z,41.13
2023-05-18T02:34:41.548Z,41.02
2023-05-18T02:37:08.206Z,41.10
2023-05-18T02:39:35.313Z,41.13
2023-05-18T02:42:01.877Z,41.01
2023-05-18T02:44:28.620Z,40.74
2023-05-18T02:46:55.296Z,40.96
2023-05-18T02:49:21.838Z,40.62
2023-05-18T02:51:48.541Z,40.50
2023-05-18T02:54:15.252Z,40.32
2023-05-18T02:56:42.699Z,40.00
2023-05-18T02:59:20.424Z,40.04
2023-05-18T03:01:47.437Z,39.40
2023-05-18T03:04:14.092Z,39.33
2023-05-18T03:06:46.731Z,39.21
2023-05-18T03:09:15.247Z,38.88
2023-05-18T03:11:42.399Z,38.68
2023-05-18T03:14:09.248Z,38.14
2023-05-18T03:16:38.277Z,37.98
2023-05-18T03:19:07.271Z,37.66
2023-05-18T03:21:36.902Z,37.74
2023-05-18T03:24:03.834Z,37.69
2023-05-18T03:26:31.435Z,37.81
2023-05-18T03:28:58.328Z,37.74
2023-05-18T03:31:25.502Z,37.65
2023-05-18T03:33:52.621Z,37.66
2023-05-18T03:36:21.856Z,37.14
2023-05-18T03:38:48.810Z,36.93
2023-05-18T03:41:15.748Z,37.05
2023-05-18T03:43:42.511Z,36.73
2023-05-18T03:46:09.176Z,36.43
2023-05-18T03:48:35.828Z,36.22
2023-05-18T03:51:02.718Z,35.78
2023-05-18T03:53:30.441Z,35.70
2023-05-18T03:55:57.039Z,35.19
2023-05-18T03:58:24.483Z,34.78
2023-05-18T04:00:52.132Z,34.42
2023-05-18T04:03:20.911Z,34.15
2023-05-18T04:05:49.110Z,33.89
2023-05-18T04:08:16.746Z,33.74
2023-05-18T04:10:43.922Z,33.17
2023-05-18T04:13:10.853Z,33.18
2023-05-18T04:15:37.989Z,33.49
2023-05-18T04:18:05.281Z,33.52
2023-05-18T04:20:31.996Z,33.43
2023-05-18T04:22:58.680Z,33.40
2023-05-18T04:25:27.367Z,32.97
2023-05-18T04:27:55.305Z,32.62
2023-05-18T04:30:23.302Z,32.40
2023-05-18T04:32:50.941Z,32.49
2023-05-18T04:35:17.966Z,32.04
2023-05-18T04:37:45.006Z,32.20
2023-05-18T04:40:16.610Z,32.27
2023-05-18T04:42:46.914Z,32.32
2023-05-18T04:45:19.822Z,32.09
2023-05-18T04:47:52.511Z,31.81
2023-05-18T04:50:19.629Z,31.80
2023-05-18T04:52:48.184Z,31.73
2023-05-18T04:55:22.336Z,31.55
2023-05-18T04:57:49.983Z,31.68
2023-05-18T05:00:17.566Z,31.47
2023-05-18T05:02:44.868Z,31.33
2023-05-18T05:05:11.804Z,30.96
2023-05-18T05:07:38.643Z,30.88
2023-05-18T05:10:06.907Z,30.73
2023-05-18T05:12:38.689Z,30.43
2023-05-18T05:15:06.952Z,30.20
2023-05-18T05:17:33.988Z,30.03
2023-05-18T05:20:00.559Z,30.16
2023-05-18T05:22:27.781Z,30.21
2023-05-18T05:24:54.658Z,30.08
2023-05-18T05:28:48.726Z,30.37
2023-05-18T05:31:15.730Z,29.71
2023-05-18T05:33:44.816Z,29.44
2023-05-18T05:36:11.853Z,29.37
2023-05-18T05:38:38.833Z,29.39
2023-05-18T05:41:06.094Z,29.30
2023-05-18T05:43:33.698Z,29.15
2023-05-18T05:46:01.052Z,29.02
2023-05-18T05:48:28.199Z,28.75
2023-05-18T05:50:55.005Z,28.87
2023-05-18T05:53:22.927Z,28.74
2023-05-18T05:55:49.827Z,28.67
2023-05-18T05:58:18.492Z,28.38
2023-05-18T06:00:50.196Z,28.27
2023-05-18T06:03:16.834Z,27.97
2023-05-18T06:05:45.810Z,28.01
2023-05-18T06:08:15.107Z,27.69
2023-05-18T06:10:42.363Z,27.81
2023-05-18T06:13:09.513Z,27.76
2023-05-18T06:15:42.245Z,27.64
2023-05-18T06:18:09.581Z,27.46
2023-05-18T06:20:38.268Z,27.12
2023-05-18T06:23:05.056Z,26.85
2023-05-18T06:25:52.613Z,26.63
2023-05-18T06:28:26.030Z,26.44
2023-05-18T06:31:18.482Z,26.39
2023-05-18T06:33:48.966Z,26.15
2023-05-18T06:36:16.070Z,26.29
2023-05-18T06:38:44.066Z,26.19
2023-05-18T06:41:10.857Z,25.81
2023-05-18T06:43:37.626Z,25.46
2023-05-18T06:46:23.816Z,25.26
2023-05-18T06:48:54.474Z,25.21
2023-05-18T06:51:21.095Z,25.04
2023-05-18T06:53:48.127Z,24.83
2023-05-18T06:56:16.149Z,24.89
2023-05-18T06:58:44.651Z,24.94
2023-05-18T07:01:11.534Z,24.61
2023-05-18T07:03:38.386Z,24.49
2023-05-18T07:06:06.404Z,24.45
2023-05-18T07:08:33.127Z,24.42
2023-05-18T07:11:01.856Z,24.16
2023-05-18T07:13:28.884Z,24.19
2023-05-18T07:15:55.649Z,23.68
2023-05-18T07:18:22.784Z,22.95
2023-05-18T07:20:49.371Z,23.08
2023-05-18T07:23:16.002Z,22.54
2023-05-18T07:25:42.535Z,22.48
2023-05-18T07:28:09.101Z,22.64
2023-05-18T07:30:35.770Z,22.63
2023-05-18T07:33:02.539Z,22.38
2023-05-18T07:35:29.658Z,22.08
2023-05-18T07:37:56.979Z,22.03
2023-05-18T07:40:23.562Z,22.32
2023-05-18T07:42:50.255Z,22.98
2023-05-18T07:45:17.209Z,23.33
2023-05-18T07:47:45.341Z,23.22
2023-05-18T07:50:11.898Z,23.28
2023-05-18T07:52:39.411Z,23.02
2023-05-18T07:55:06.466Z,22.77
2023-05-18T07:57:34.849Z,22.47
2023-05-18T08:00:04.349Z,22.48
2023-05-18T08:02:39.599Z,22.20
2023-05-18T08:05:07.823Z,22.25
2023-05-18T08:07:34.522Z,22.47
2023-05-18T08:10:01.218Z,22.86
2023-05-18T08:12:29.452Z,22.87
2023-05-18T08:14:56.583Z,23.06
2023-05-18T08:17:23.106Z,22.94
2023-05-18T08:31:02.531Z,21.14
2023-05-18T08:33:29.361Z,21.05
2023-05-18T08:35:56.334Z,20.95
2023-05-18T08:38:23.499Z,20.94
2023-05-18T08:41:03.227Z,20.93
2023-05-18T08:43:32.796Z,21.19
2023-05-18T08:46:07.013Z,21.30
2023-05-18T08:48:34.386Z,21.59
2023-05-18T08:51:02.178Z,21.43
2023-05-18T08:53:29.284Z,21.37
2023-05-18T08:55:56.585Z,21.35
2023-05-18T08:58:30.065Z,21.10
2023-05-18T09:00:57.561Z,20.81
2023-05-18T09:03:25.834Z,20.82
2023-05-18T09:05:53.011Z,20.41
2023-05-18T09:08:21.571Z,20.51
2023-05-18T09:10:48.684Z,20.63
2023-05-18T09:13:15.551Z,21.01
2023-05-18T09:15:42.251Z,21.21
2023-05-18T09:18:11.165Z,21.54
2023-05-18T09:20:38.074Z,21.14
2023-05-18T09:23:04.877Z,21.09
2023-05-18T09:25:32.415Z,21.05
2023-05-18T09:27:59.456Z,20.82
2023-05-18T09:30:26.122Z,20.58
2023-05-18T09:32:52.994Z,20.48
2023-05-18T09:35:19.770Z,20.23
2023-05-18T09:37:47.501Z,20.18
2023-05-18T09:40:16.035Z,19.78
2023-05-18T09:42:43.605Z,19.68
2023-05-18T09:45:23.208Z,20.02
2023-05-18T09:47:50.246Z,20.05
2023-05-18T09:50:21.032Z,20.08
2023-05-18T09:52:48.801Z,19.92
2023-05-18T09:55:16.033Z,19.93
2023-05-18T09:57:46.868Z,19.67
2023-05-18T10:00:13.972Z,18.63
2023-05-18T10:02:41.533Z,18.43
2023-05-18T10:05:21.789Z,18.47
2023-05-18T10:07:53.204Z,18.00
2023-05-18T10:10:22.616Z,17.95
2023-05-18T10:12:53.534Z,17.98
2023-05-18T10:15:21.179Z,17.86
2023-05-18T10:17:50.389Z,17.52
2023-05-18T10:20:22.290Z,17.69
2023-05-18T10:22:49.334Z,17.73
2023-05-18T10:25:19.388Z,17.63
2023-05-18T10:27:51.140Z,17.60
2023-05-18T10:30:17.944Z,17.04
2023-05-18T11:44:16.865Z,14.47
2023-05-18T11:47:01.837Z,14.16
2023-05-18T11:49:30.279Z,14.84
2023-05-18T11:52:22.968Z,15.44
2023-05-18T11:54:50.741Z,15.63
2023-05-18T11:57:18.944Z,15.99
2023-05-18T11:59:48.152Z,15.59
2023-05-18T12:02:25.574Z,15.82
2023-05-18T12:04:55.495Z,15.65
2023-05-18T12:07:22.677Z,15.55
2023-05-18T12:09:49.615Z,15.38
2023-05-18T12:12:20.965Z,14.89
2023-05-18T12:15:01.243Z,14.74
2023-05-18T12:17:47.751Z,15.01
2023-05-18T12:20:17.278Z,15.25
2023-05-18T12:22:53.146Z,15.33
2023-05-18T12:25:22.569Z,15.00
2023-05-18T12:27:54.216Z,14.55
2023-05-18T12:30:35.280Z,14.03
2023-05-18T12:33:04.057Z,14.16
2023-05-18T12:35:33.940Z,14.24
2023-05-18T12:38:02.235Z,14.04
2023-05-18T12:40:44.856Z,13.96
2023-05-18T12:43:13.790Z,14.01
2023-05-18T12:45:44.006Z,13.56
2023-05-18T12:48:12.053Z,13.55
2023-05-18T12:50:48.393Z,13.64
2023-05-18T12:53:16.102Z,14.08
2023-05-18T12:55:56.765Z,14.24
2023-05-18T12:58:23.800Z,14.55
2023-05-18T13:00:51.920Z,14.72
2023-05-18T13:03:22.908Z,14.72
2023-05-18T13:06:06.767Z,14.58
2023-05-18T13:08:34.858Z,14.42
2023-05-18T13:11:13.662Z,14.46
2023-05-18T13:14:01.951Z,14.19
2023-05-18T13:16:30.541Z,13.77
2023-05-18T13:18:59.818Z,13.92
2023-05-18T13:21:56.396Z,13.84
2023-05-18T13:24:24.581Z,13.52
2023-05-18T13:27:17.458Z,14.15
2023-05-18T13:29:46.897Z,13.81
2023-05-18T13:32:17.560Z,13.47
2023-05-18T13:34:44.852Z,13.23
2023-05-18T13:37:19.475Z,13.15
2023-05-18T13:39:52.432Z,13.31
2023-05-18T13:42:21.422Z,13.38
2023-05-18T13:44:49.509Z,13.48
2023-05-18T13:47:16.623Z,13.39
2023-05-18T13:49:43.590Z,13.37
2023-05-18T13:52:11.548Z,13.19
2023-05-18T13:54:42.168Z,13.10
2023-05-18T13:57:09.407Z,13.14
2023-05-18T13:59:36.429Z,12.85
2023-05-18T14:02:04.170Z,12.82
2023-05-18T14:04:32.184Z,12.74
2023-05-18T14:07:00.670Z,12.49
2023-05-18T14:09:30.162Z,13.08
2023-05-18T14:12:00.571Z,14.09
2023-05-18T14:14:30.084Z,14.97
2023-05-18T14:17:00.348Z,15.89
2023-05-18T14:19:28.673Z,16.55
2023-05-18T14:21:55.876Z,16.90
2023-05-18T14:24:23.876Z,17.66
2023-05-18T14:26:53.664Z,17.82
2023-05-18T14:29:20.765Z,18.15
2023-05-18T14:31:47.795Z,18.60
2023-05-18T14:34:14.811Z,19.21
2023-05-18T14:36:41.757Z,19.23
2023-05-18T14:39:08.725Z,19.38
2023-05-18T14:41:35.723Z,19.15
2023-05-18T14:44:04.724Z,19.21
2023-05-18T14:46:31.598Z,19.52
2023-05-18T14:48:58.522Z,18.53
2023-05-18T14:51:25.444Z,18.59
2023-05-18T14:53:52.478Z,18.86
2023-05-18T14:56:19.257Z,18.68
2023-05-18T14:58:46.100Z,18.35
2023-05-18T15:01:12.911Z,18.01
2023-05-18T15:03:39.856Z,17.92
2023-05-18T15:06:06.997Z,18.00
2023-05-18T15:08:34.998Z,17.81
2023-05-18T15:11:01.931Z,17.25
2023-05-18T15:13:28.747Z,17.17
2023-05-18T15:15:55.608Z,17.15
2023-05-18T15:18:23.664Z,16.86
2023-05-18T15:20:51.486Z,17.00
2023-05-18T15:23:18.388Z,16.37
2023-05-18T15:25:45.584Z,16.58
2023-05-18T15:28:13.828Z,16.32
2023-05-18T15:30:41.869Z,16.41
2023-05-18T15:33:10.339Z,16.35
2023-05-18T15:35:38.711Z,16.06
2023-05-18T15:38:05.691Z,16.23
2023-05-18T15:40:32.791Z,16.05
2023-05-18T15:42:59.819Z,15.92
2023-05-18T15:45:27.625Z,15.70
2023-05-18T15:47:54.537Z,15.67
2023-05-18T15:50:21.381Z,15.44
2023-05-18T15:52:48.214Z,15.68
2023-05-18T15:55:15.143Z,15.60
2023-05-18T15:57:42.081Z,15.73
2023-05-18T16:00:09.476Z,15.37
2023-05-18T16:02:39.296Z,15.73
2023-05-18T16:05:07.676Z,16.28
2023-05-18T16:07:35.445Z,16.81
2023-05-18T16:10:02.320Z,17.35
2023-05-18T16:12:30.198Z,17.50
2023-05-18T16:14:57.084Z,17.77
2023-05-18T16:17:25.048Z,17.84
2023-05-18T16:19:51.988Z,18.12
2023-05-18T16:22:18.837Z,18.57
2023-05-18T16:24:45.732Z,18.61
2023-05-18T16:27:12.955Z,18.56
2023-05-18T16:29:41.556Z,18.02
2023-05-18T16:32:08.455Z,18.11
2023-05-18T16:34:35.494Z,18.45
2023-05-18T16:37:02.348Z,18.57
2023-05-18T16:39:31.252Z,19.13
2023-05-18T16:41:58.017Z,19.53
2023-05-18T16:44:24.884Z,19.50
2023-05-18T16:46:51.855Z,19.77
2023-05-18T16:49:20.589Z,19.74
2023-05-18T16:51:47.425Z,20.16
2023-05-18T16:54:14.261Z,20.14
2023-05-18T16:56:41.107Z,20.06
2023-05-18T16:59:09.598Z,20.35
2023-05-18T17:01:36.601Z,20.85
2023-05-18T17:04:03.892Z,20.76
2023-05-18T17:06:31.164Z,21.25
2023-05-18T17:08:58.448Z,21.57
2023-05-18T17:11:27.188Z,21.67
2023-05-18T17:13:55.772Z,22.06
2023-05-18T17:16:23.559Z,22.22
2023-05-18T17:18:50.825Z,22.36
2023-05-18T17:21:17.692Z,22.58
2023-05-18T17:23:45.793Z,22.74
2023-05-18T17:26:12.611Z,22.91
2023-05-18T17:28:39.580Z,23.18
2023-05-18T17:31:07.703Z,23.29
2023-05-18T17:33:34.574Z,23.52
2023-05-18T17:36:01.430Z,23.65
2023-05-18T17:38:31.567Z,24.01
2023-05-18T17:40:59.447Z,24.24
2023-05-18T17:43:26.256Z,25.13
2023-05-18T17:45:54.077Z,25.70
2023-05-18T17:48:20.971Z,25.94
2023-05-18T17:50:47.887Z,26.02
2023-05-18T17:53:14.742Z,26.30
2023-05-18T17:55:41.775Z,26.35
2023-05-18T17:58:08.614Z,26.49
2023-05-18T18:00:35.441Z,26.50
2023-05-18T18:03:02.387Z,26.48
2023-05-18T18:05:29.406Z,26.49
2023-05-18T18:07:58.280Z,26.57
2023-05-18T18:10:25.100Z,26.59
2023-05-18T18:12:51.898Z,26.61
2023-05-18T18:15:18.856Z,26.89
2023-05-18T18:17:45.903Z,26.94
2023-05-18T18:20:12.782Z,27.07
2023-05-18T18:22:39.621Z,27.18
2023-05-18T18:25:06.707Z,27.24
2023-05-18T18:27:33.528Z,27.21
2023-05-18T18:30:00.411Z,27.11
2023-05-18T18:32:29.280Z,27.22
2023-05-18T18:34:57.226Z,27.31
2023-05-18T18:37:24.156Z,27.35
2023-05-18T18:39:51.238Z,27.59
2023-05-18T18:42:21.275Z,27.64
2023-05-18T18:44:48.584Z,27.71
2023-05-18T18:47:15.403Z,27.76
2023-05-18T18:49:42.196Z,27.81
2023-05-18T18:52:10.288Z,27.65
2023-05-18T18:54:38.365Z,27.90
2023-05-18T18:57:05.552Z,27.71
2023-05-18T18:59:32.424Z,27.88
2023-05-18T19:01:59.444Z,27.91
2023-05-18T19:04:27.538Z,28.03
2023-05-18T19:06:55.206Z,28.09
2023-05-18T19:09:22.858Z,28.10
2023-05-18T19:11:50.663Z,28.37
2023-05-18T19:14:17.550Z,28.46
2023-05-18T19:16:44.422Z,28.47
2023-05-18T19:19:11.492Z,28.59
2023-05-18T19:21:38.503Z,28.65
2023-05-18T19:24:07.545Z,28.65
2023-05-18T19:26:34.614Z,28.77
2023-05-18T19:29:01.441Z,28.87
2023-05-18T19:31:31.672Z,29.08
2023-05-18T19:34:01.580Z,29.25
2023-05-18T19:36:28.476Z,29.71
2023-05-18T19:38:55.980Z,29.82
2023-05-18T19:41:24.638Z,29.83
2023-05-18T19:43:51.920Z,30.07
2023-05-18T19:46:19.171Z,30.26
2023-05-18T19:48:48.378Z,30.39
2023-05-18T19:51:15.462Z,30.53
2023-05-18T19:53:43.473Z,30.60
2023-05-18T19:56:11.198Z,30.88
2023-05-18T19:58:38.021Z,31.04
2023-05-18T20:01:05.987Z,31.22
2023-05-18T20:03:33.523Z,31.25
2023-05-18T20:06:01.401Z,31.31
2023-05-18T20:08:28.201Z,31.48
2023-05-18T20:10:55.124Z,31.49
2023-05-18T20:13:23.035Z,31.42
2023-05-18T20:15:50.396Z,31.50
2023-05-18T20:18:17.282Z,31.66
2023-05-18T20:20:44.141Z,31.73
2023-05-18T20:23:11.919Z,31.64
2023-05-18T20:25:38.791Z,31.84
2023-05-18T20:28:08.616Z,31.98
2023-05-18T20:30:35.495Z,31.85
2023-05-18T20:33:04.803Z,31.82
2023-05-18T20:37:59.817Z,32.58
2023-05-18T20:40:27.732Z,32.05
2023-05-18T20:42:54.532Z,32.09
2023-05-18T20:45:22.446Z,32.14
2023-05-18T20:47:52.226Z,32.02
2023-05-18T20:50:19.466Z,32.06
2023-05-18T20:52:46.533Z,32.12
2023-05-18T20:55:14.814Z,32.38
2023-05-18T20:57:44.718Z,32.42
2023-05-18T21:00:12.947Z,32.35
2023-05-18T21:02:45.185Z,32.27
2023-05-18T21:05:12.439Z,32.14
2023-05-18T21:07:40.407Z,32.06
2023-05-18T21:10:08.375Z,32.14
2023-05-18T21:12:35.148Z,32.04
2023-05-18T21:15:02.121Z,31.94
2023-05-18T21:17:31.435Z,31.78
2023-05-18T21:20:00.176Z,31.94
2023-05-18T21:22:27.223Z,31.89
2023-05-18T21:24:54.130Z,31.98
2023-05-18T21:27:21.263Z,31.71
2023-05-18T21:29:48.102Z,31.66
2023-05-18T21:32:15.208Z,31.57
2023-05-18T21:34:43.678Z,31.40
2023-05-18T21:37:10.991Z,31.48
2023-05-18T21:39:37.910Z,31.63
2023-05-18T21:42:04.906Z,31.44
2023-05-18T21:44:32.399Z,31.69
2023-05-18T21:46:59.233Z,32.10
2023-05-18T21:49:26.162Z,32.40
2023-05-18T21:51:52.972Z,33.04
2023-05-18T21:54:19.820Z,33.25
2023-05-18T21:56:46.617Z,34.02
2023-05-18T21:59:13.448Z,34.47
2023-05-18T22:01:40.263Z,34.88
2023-05-18T22:04:07.071Z,35.16
2023-05-18T22:06:33.866Z,35.38
2023-05-18T22:09:00.683Z,35.24
2023-05-18T22:11:27.497Z,35.67
2023-05-18T22:13:54.368Z,35.72
2023-05-18T22:16:21.749Z,35.82
2023-05-18T22:18:49.679Z,35.98
2023-05-18T22:21:16.585Z,35.90
2023-05-18T22:23:43.520Z,35.77
2023-05-18T22:26:12.263Z,36.09
2023-05-18T22:28:39.099Z,35.99
2023-05-18T22:31:06.772Z,36.08
2023-05-18T22:33:33.617Z,36.12
2023-05-18T22:36:00.583Z,36.29
2023-05-18T22:38:27.950Z,36.38
2023-05-18T22:40:54.723Z,36.39
2023-05-18T22:43:21.949Z,36.81
2023-05-18T22:45:49.036Z,37.03
2023-05-18T22:48:16.946Z,37.19
2023-05-18T22:50:43.892Z,37.44
2023-05-18T22:53:15.202Z,37.83
2023-05-18T22:55:42.132Z,38.16
2023-05-18T22:58:08.894Z,38.30
2023-05-18T23:00:35.742Z,38.92
2023-05-18T23:03:02.633Z,39.20
2023-05-18T23:05:29.742Z,39.39
2023-05-18T23:07:58.255Z,39.57
2023-05-18T23:10:26.558Z,39.83
2023-05-18T23:12:55.789Z,40.10
2023-05-18T23:15:23.130Z,40.09
2023-05-18T23:17:50.306Z,40.40
2023-05-18T23:20:17.270Z,40.33
2023-05-18T23:22:44.517Z,40.48
2023-05-18T23:25:11.426Z,40.71
2023-05-18T23:27:41.350Z,41.09
2023-05-18T23:30:08.608Z,41.11
2023-05-18T23:32:36.400Z,41.39
2023-05-18T23:35:04.870Z,41.23
2023-05-18T23:37:33.032Z,40.97
2023-05-18T23:40:02.032Z,41.09
2023-05-18T23:42:30.241Z,41.27
2023-05-18T23:44:57.394Z,41.40
2023-05-18T23:47:24.490Z,41.32
2023-05-18T23:49:51.598Z,41.57
2023-05-18T23:52:18.440Z,41.63
2023-05-18T23:54:47.240Z,41.69
2023-05-18T23:57:14.316Z,41.71
2023-05-18T23:59:42.068Z,41.73
